createdAt,value
2023-04-23T00:01:48.143Z,2.72
2023-04-23T00:04:18.186Z,2.85
2023-04-23T00:06:47.428Z,3.20
2023-04-23T00:09:16.796Z,2.10
2023-04-23T00:11:43.497Z,2.33
2023-04-23T00:14:10.548Z,2.42
2023-04-23T00:16:37.908Z,2.63
2023-04-23T00:19:04.490Z,2.55
2023-04-23T00:21:31.782Z,2.40
2023-04-23T00:23:58.312Z,2.67
2023-04-23T00:26:24.814Z,2.40
2023-04-23T00:28:51.269Z,3.08
2023-04-23T00:31:17.867Z,3.22
2023-04-23T00:33:44.442Z,2.78
2023-04-23T00:36:10.973Z,2.65
2023-04-23T00:38:37.685Z,3.05
2023-04-23T00:41:04.654Z,3.67
2023-04-23T00:43:32.143Z,3.17
2023-04-23T00:45:58.756Z,2.78
2023-04-23T00:48:26.059Z,3.13
2023-04-23T00:51:00.677Z,3.00
2023-04-23T00:53:27.397Z,2.75
2023-04-23T00:55:54.648Z,2.85
2023-04-23T00:58:21.614Z,2.65
2023-04-23T01:00:49.218Z,2.95
2023-04-23T01:03:18.447Z,3.65
2023-04-23T01:05:45.511Z,2.47
2023-04-23T01:08:15.564Z,3.28
2023-04-23T01:15:39.740Z,2.50
2023-04-23T01:18:07.910Z,2.80
2023-04-23T01:20:35.646Z,2.75
2023-04-23T01:23:06.488Z,3.05
2023-04-23T01:25:33.057Z,2.88
2023-04-23T01:27:59.794Z,2.90
2023-04-23T01:30:27.669Z,2.90
2023-04-23T01:32:57.747Z,2.97
2023-04-23T01:37:52.572Z,3.05
2023-04-23T01:40:20.310Z,3.28
2023-04-23T01:42:48.631Z,3.05
2023-04-23T01:45:15.614Z,3.08
2023-04-23T01:47:42.457Z,2.90
2023-04-23T01:50:09.863Z,2.92
2023-04-23T01:52:36.540Z,3.30
2023-04-23T01:55:03.761Z,3.15
2023-04-23T01:57:30.765Z,2.95
2023-04-23T02:00:08.149Z,3.63
2023-04-23T02:02:39.835Z,2.72
2023-04-23T02:05:12.228Z,2.92
2023-04-23T02:07:39.437Z,2.97
2023-04-23T02:10:06.870Z,2.83
2023-04-23T02:12:33.483Z,2.55
2023-04-23T02:15:00.078Z,2.97
2023-04-23T02:17:28.409Z,2.25
2023-04-23T02:19:56.075Z,2.90
2023-04-23T02:22:25.055Z,2.70
2023-04-23T02:24:52.741Z,2.70
2023-04-23T02:27:19.527Z,2.65
2023-04-23T02:29:46.557Z,2.88
2023-04-23T02:32:13.247Z,2.45
2023-04-23T02:34:40.019Z,2.95
2023-04-23T02:37:07.142Z,2.72
2023-04-23T02:39:33.830Z,2.55
2023-04-23T02:42:00.655Z,3.10
2023-04-23T02:44:27.297Z,3.17
2023-04-23T02:46:54.526Z,3.83
2023-04-23T02:49:21.164Z,2.83
2023-04-23T02:51:47.720Z,3.15
2023-04-23T02:54:14.525Z,2.80
2023-04-23T02:56:41.046Z,3.13
2023-04-23T02:59:09.219Z,2.95
2023-04-23T03:01:35.733Z,3.00
2023-04-23T03:04:03.740Z,3.03
2023-04-23T03:06:35.703Z,3.20
2023-04-23T03:09:02.394Z,3.33
2023-04-23T03:11:29.086Z,2.78
2023-04-23T03:13:55.635Z,2.83
2023-04-23T03:16:22.285Z,3.10
2023-04-23T03:18:48.870Z,2.85
2023-04-23T03:21:15.433Z,2.38
2023-04-23T03:23:41.940Z,2.55
2023-04-23T03:26:08.422Z,3.05
2023-04-23T03:28:35.193Z,2.85
2023-04-23T03:31:01.906Z,2.53
2023-04-23T03:33:28.515Z,2.85
2023-04-23T03:35:55.096Z,3.00
2023-04-23T03:38:21.600Z,2.95
2023-04-23T03:40:48.257Z,2.75
2023-04-23T03:43:14.808Z,2.28
2023-04-23T03:45:41.305Z,2.30
2023-04-23T03:48:07.839Z,2.85
2023-04-23T03:50:38.847Z,3.08
2023-04-23T03:53:08.178Z,3.03
2023-04-23T03:55:34.680Z,3.20
2023-04-23T03:58:01.836Z,2.50
2023-04-23T04:00:29.936Z,3.08
2023-04-23T04:02:56.546Z,2.88
2023-04-23T04:05:23.429Z,2.85
2023-04-23T04:07:49.963Z,2.67
2023-04-23T04:10:16.599Z,3.08
2023-04-23T04:12:44.969Z,3.17
2023-04-23T04:15:12.636Z,2.67
2023-04-23T04:17:39.505Z,3.00
2023-04-23T04:20:11.195Z,3.22
2023-04-23T04:22:38.330Z,3.40
2023-04-23T04:25:05.375Z,3.55
2023-04-23T04:27:34.707Z,3.67
2023-04-23T04:30:02.197Z,3.17
2023-04-23T04:32:28.758Z,3.40
2023-04-23T04:34:55.315Z,3.40
2023-04-23T04:37:21.914Z,2.75
2023-04-23T04:39:48.540Z,3.40
2023-04-23T04:42:15.722Z,2.85
2023-04-23T04:44:43.606Z,3.22
2023-04-23T04:47:10.713Z,2.90
2023-04-23T04:49:38.302Z,3.25
2023-04-23T04:52:04.970Z,2.88
2023-04-23T04:54:31.689Z,3.15
2023-04-23T04:56:58.182Z,3.55
2023-04-23T04:59:24.664Z,2.80
2023-04-23T05:01:51.191Z,3.15
2023-04-23T05:04:17.996Z,3.28
2023-04-23T05:06:44.542Z,3.20
2023-04-23T05:09:11.554Z,3.33
2023-04-23T05:11:38.165Z,3.70
2023-04-23T05:14:04.750Z,3.40
2023-04-23T05:16:31.344Z,3.63
2023-04-23T05:18:57.920Z,3.40
2023-04-23T05:21:24.475Z,3.25
2023-04-23T05:23:51.035Z,4.05
2023-04-23T05:26:18.232Z,3.47
2023-04-23T05:28:44.825Z,3.55
2023-04-23T05:31:11.482Z,3.47
2023-04-23T05:33:49.260Z,3.95
2023-04-23T05:36:16.795Z,3.63
2023-04-23T05:38:43.339Z,3.20
2023-04-23T05:41:09.863Z,3.17
2023-04-23T05:43:36.439Z,3.58
2023-04-23T05:46:04.773Z,3.35
2023-04-23T05:48:31.367Z,2.67
2023-04-23T05:50:58.480Z,2.95
2023-04-23T05:53:25.205Z,3.97
2023-04-23T05:55:51.713Z,3.53
2023-04-23T05:58:19.250Z,3.15
2023-04-23T06:00:45.890Z,3.22
2023-04-23T06:03:12.797Z,3.70
2023-04-23T06:05:39.523Z,2.80
2023-04-23T06:08:06.158Z,2.72
2023-04-23T06:10:32.719Z,3.40
2023-04-23T06:12:59.236Z,3.45
2023-04-23T06:15:27.169Z,3.08
2023-04-23T06:17:54.584Z,2.85
2023-04-23T06:20:21.140Z,3.20
2023-04-23T06:22:47.743Z,3.17
2023-04-23T06:25:14.266Z,2.70
2023-04-23T06:27:40.938Z,3.40
2023-04-23T06:30:08.063Z,3.38
2023-04-23T06:32:34.663Z,3.47
2023-04-23T06:35:02.235Z,2.65
2023-04-23T06:37:30.795Z,3.33
2023-04-23T06:39:58.951Z,4.30
2023-04-23T06:42:25.444Z,2.70
2023-04-23T06:44:52.122Z,3.05
2023-04-23T06:47:19.513Z,3.33
2023-04-23T06:49:46.066Z,4.03
2023-04-23T06:52:12.659Z,2.83
2023-04-23T06:54:39.463Z,2.45
2023-04-23T06:57:06.476Z,2.67
2023-04-23T06:59:33.049Z,2.85
2023-04-23T07:01:59.609Z,2.78
2023-04-23T07:04:26.173Z,3.60
2023-04-23T07:06:52.737Z,2.83
2023-04-23T07:09:19.241Z,2.95
2023-04-23T07:11:45.832Z,3.30
2023-04-23T07:14:12.332Z,3.38
2023-04-23T07:16:38.947Z,4.03
2023-04-23T07:19:05.618Z,2.60
2023-04-23T07:21:33.081Z,2.95
2023-04-23T07:24:00.807Z,2.95
2023-04-23T07:26:28.040Z,3.40
2023-04-23T07:28:54.816Z,2.67
2023-04-23T07:31:21.969Z,2.58
2023-04-23T07:33:48.528Z,3.20
2023-04-23T07:36:15.265Z,2.78
2023-04-23T07:38:42.035Z,3.25
2023-04-23T07:41:08.668Z,2.65
2023-04-23T07:43:35.205Z,2.67
2023-04-23T07:46:01.961Z,2.60
2023-04-23T07:48:28.579Z,3.20
2023-04-23T07:50:55.166Z,2.85
2023-04-23T07:53:21.971Z,2.80
2023-04-23T07:55:48.490Z,2.00
2023-04-23T07:58:15.154Z,1.85
2023-04-23T08:00:41.840Z,2.10
2023-04-23T08:03:08.479Z,2.30
2023-04-23T08:05:37.268Z,1.98
2023-04-23T08:08:06.087Z,1.98
2023-04-23T08:10:35.278Z,2.05
2023-04-23T08:13:02.192Z,1.90
2023-04-23T08:15:31.859Z,1.80
2023-04-23T08:17:58.478Z,2.05
2023-04-23T08:20:25.769Z,1.55
2023-04-23T08:22:53.817Z,1.90
2023-04-23T08:25:23.417Z,2.22
2023-04-23T08:27:50.116Z,1.85
2023-04-23T08:30:16.709Z,2.30
2023-04-23T08:32:50.232Z,1.80
2023-04-23T08:58:22.695Z,2.33
2023-04-23T09:00:50.033Z,1.75
2023-04-23T09:03:17.468Z,2.00
2023-04-23T09:05:44.586Z,2.42
2023-04-23T09:08:11.087Z,2.70
2023-04-23T09:10:41.834Z,1.88
2023-04-23T09:13:11.512Z,1.77
2023-04-23T09:15:43.461Z,2.30
2023-04-23T09:18:10.860Z,1.70
2023-04-23T09:20:37.589Z,1.77
2023-04-23T09:23:08.055Z,2.00
2023-04-23T09:25:34.640Z,1.55
2023-04-23T09:28:01.784Z,2.05
2023-04-23T09:30:28.433Z,1.70
2023-04-23T09:32:55.510Z,2.70
2023-04-23T09:35:22.997Z,2.03
2023-04-23T09:37:52.497Z,1.70
2023-04-23T09:40:23.958Z,1.88
2023-04-23T09:42:56.527Z,2.47
2023-04-23T09:45:25.631Z,2.10
2023-04-23T09:47:55.141Z,2.17
2023-04-23T09:50:38.997Z,1.73
2023-04-23T09:53:07.239Z,1.83
2023-04-23T09:55:39.126Z,2.15
2023-04-23T09:58:07.591Z,2.30
2023-04-23T10:00:37.154Z,2.10
2023-04-23T10:03:05.083Z,2.72
2023-04-23T10:05:41.092Z,2.08
2023-04-23T10:08:17.430Z,2.28
2023-04-23T10:10:59.476Z,2.17
2023-04-23T10:13:31.365Z,2.58
2023-04-23T10:16:07.505Z,1.50
2023-04-23T10:18:45.506Z,1.80
2023-04-23T10:21:14.754Z,1.80
2023-04-23T10:23:44.331Z,1.65
2023-04-23T10:26:14.858Z,1.42
2023-04-23T10:28:47.027Z,1.80
2023-04-23T10:31:13.816Z,1.48
2023-04-23T10:33:55.907Z,2.08
2023-04-23T10:36:27.585Z,1.80
2023-04-23T10:38:59.022Z,1.77
2023-04-23T10:41:34.851Z,1.90
2023-04-23T10:44:01.426Z,1.63
2023-04-23T10:46:30.017Z,1.40
2023-04-23T10:49:16.671Z,1.15
2023-04-23T10:54:19.904Z,1.10
2023-04-23T10:56:46.541Z,1.27
2023-04-23T10:59:22.748Z,1.20
2023-04-23T11:01:52.740Z,1.80
2023-04-23T11:04:21.399Z,1.48
2023-04-23T11:06:48.033Z,1.10
2023-04-23T11:09:37.861Z,1.70
2023-04-23T11:12:10.858Z,1.15
2023-04-23T11:14:41.470Z,1.45
2023-04-23T11:17:08.139Z,1.23
2023-04-23T11:19:39.053Z,0.80
2023-04-23T11:22:18.549Z,1.30
2023-04-23T11:27:18.590Z,0.80
2023-04-23T11:29:46.694Z,1.30
2023-04-23T11:32:18.011Z,1.00
2023-04-23T11:34:47.441Z,1.30
2023-04-23T11:37:15.527Z,1.10
2023-04-23T11:39:44.398Z,1.00
2023-04-23T11:42:20.085Z,1.05
2023-04-23T11:44:47.781Z,0.75
2023-04-23T11:47:16.628Z,1.30
2023-04-23T11:49:52.269Z,1.15
2023-04-23T11:52:20.000Z,0.93
2023-04-23T11:54:51.511Z,0.77
2023-04-23T11:57:26.616Z,1.10
2023-04-23T11:59:53.649Z,1.02
2023-04-23T12:02:24.238Z,0.82
2023-04-23T12:04:50.980Z,1.05
2023-04-23T12:07:26.341Z,1.13
2023-04-23T12:10:07.682Z,1.10
2023-04-23T12:12:42.581Z,1.30
2023-04-23T12:52:47.461Z,1.02
2023-04-23T12:55:59.639Z,1.08
2023-04-23T12:58:27.906Z,1.25
2023-04-23T13:00:54.780Z,0.80
2023-04-23T13:03:42.384Z,1.50
2023-04-23T13:13:54.937Z,1.10
2023-04-23T13:16:55.049Z,1.20
2023-04-23T13:19:21.596Z,1.00
2023-04-23T13:21:48.062Z,1.17
2023-04-23T13:24:14.569Z,1.23
2023-04-23T13:26:41.058Z,1.42
2023-04-23T13:29:07.597Z,1.40
2023-04-23T13:31:34.373Z,1.10
2023-04-23T13:34:02.856Z,1.25
2023-04-23T13:36:29.467Z,1.85
2023-04-23T13:38:55.996Z,1.70
2023-04-23T13:41:22.478Z,1.45
2023-04-23T13:43:48.956Z,1.30
2023-04-23T13:46:16.765Z,2.13
2023-04-23T13:48:43.389Z,1.50
2023-04-23T13:51:25.382Z,1.52
2023-04-23T13:53:56.366Z,1.73
2023-04-23T13:56:23.031Z,1.75
2023-04-23T13:58:52.942Z,1.83
2023-04-23T14:01:19.613Z,1.70
2023-04-23T14:03:47.308Z,1.42
2023-04-23T14:06:13.867Z,1.80
2023-04-23T14:08:41.062Z,1.23
2023-04-23T14:11:07.620Z,1.33
2023-04-23T14:13:34.126Z,1.40
2023-04-23T14:16:03.390Z,1.73
2023-04-23T14:18:30.332Z,1.67
2023-04-23T14:20:57.070Z,2.10
2023-04-23T14:23:23.503Z,1.52
2023-04-23T14:26:04.572Z,1.40
2023-04-23T14:28:39.071Z,1.40
2023-04-23T14:31:05.842Z,1.52
2023-04-23T14:33:32.400Z,1.70
2023-04-23T14:35:59.211Z,1.67
2023-04-23T14:38:26.843Z,1.83
2023-04-23T14:40:53.783Z,1.70
2023-04-23T14:43:20.456Z,1.65
2023-04-23T14:45:47.335Z,1.75
2023-04-23T14:48:13.911Z,1.30
2023-04-23T14:50:40.443Z,1.58
2023-04-23T14:53:09.928Z,1.10
2023-04-23T14:55:36.784Z,1.67
2023-04-23T14:58:03.265Z,1.55
2023-04-23T15:00:30.199Z,1.30
2023-04-23T15:02:57.020Z,1.33
2023-04-23T15:05:23.895Z,1.40
2023-04-23T15:07:51.753Z,1.60
2023-04-23T15:10:19.393Z,1.50
2023-04-23T15:12:53.396Z,1.45
2023-04-23T15:15:37.022Z,1.30
2023-04-23T15:18:10.631Z,1.65
2023-04-23T15:20:37.415Z,1.23
2023-04-23T15:23:04.359Z,1.17
2023-04-23T15:25:33.122Z,1.83
2023-04-23T15:28:00.891Z,1.63
2023-04-23T15:30:28.085Z,1.52
2023-04-23T15:32:55.472Z,1.45
2023-04-23T15:35:25.883Z,1.45
2023-04-23T15:37:54.548Z,1.52
2023-04-23T15:40:21.160Z,1.83
2023-04-23T15:42:49.890Z,1.30
2023-04-23T15:45:17.102Z,1.25
2023-04-23T15:47:43.833Z,1.50
2023-04-23T15:50:11.742Z,1.60
2023-04-23T15:52:39.063Z,1.48
2023-04-23T15:55:11.189Z,1.98
2023-04-23T15:57:37.658Z,1.80
2023-04-23T16:00:06.083Z,1.38
2023-04-23T16:02:34.546Z,2.00
2023-04-23T16:05:01.817Z,1.50
2023-04-23T16:07:28.426Z,1.50
2023-04-23T16:09:54.937Z,1.48
2023-04-23T16:12:21.445Z,1.20
2023-04-23T16:14:47.951Z,1.17
2023-04-23T16:17:14.509Z,1.05
2023-04-23T16:19:41.275Z,1.60
2023-04-23T16:22:07.912Z,1.20
2023-04-23T16:24:34.406Z,1.40
2023-04-23T16:27:02.510Z,1.17
2023-04-23T16:29:29.441Z,1.50
2023-04-23T16:31:55.983Z,1.92
2023-04-23T16:34:22.537Z,1.13
2023-04-23T16:36:49.086Z,1.60
2023-04-23T16:39:16.177Z,1.35
2023-04-23T16:41:42.789Z,1.42
2023-04-23T16:44:09.277Z,1.25
2023-04-23T16:46:36.099Z,1.25
2023-04-23T16:49:02.757Z,1.40
2023-04-23T16:51:36.064Z,1.60
2023-04-23T16:54:12.063Z,1.30
2023-04-23T16:56:38.698Z,1.52
2023-04-23T16:59:05.366Z,1.60
2023-04-23T17:01:31.918Z,1.20
2023-04-23T17:03:58.559Z,1.50
2023-04-23T17:06:29.527Z,1.30
2023-04-23T17:08:57.813Z,1.38
2023-04-23T17:11:26.023Z,1.50
2023-04-23T17:13:52.827Z,1.38
2023-04-23T17:16:19.422Z,1.50
2023-04-23T17:18:46.328Z,1.70
2023-04-23T17:21:12.924Z,1.50
2023-04-23T17:23:39.751Z,1.40
2023-04-23T17:26:06.827Z,1.88
2023-04-23T17:28:33.349Z,1.48
2023-04-23T17:31:01.228Z,1.20
2023-04-23T17:33:27.838Z,2.00
2023-04-23T17:35:55.829Z,2.05
2023-04-23T17:38:22.799Z,1.85
2023-04-23T17:40:50.188Z,2.15
2023-04-23T17:43:17.419Z,1.63
2023-04-23T17:45:45.330Z,2.28
2023-04-23T17:48:12.699Z,1.80
2023-04-23T17:50:39.515Z,2.10
2023-04-23T17:53:06.213Z,2.40
2023-04-23T17:55:33.213Z,1.98
2023-04-23T17:58:05.092Z,3.33
2023-04-23T18:00:36.128Z,2.17
2023-04-23T18:03:03.942Z,2.60
2023-04-23T18:05:31.162Z,2.33
2023-04-23T18:07:58.095Z,2.47
2023-04-23T18:10:24.737Z,1.88
2023-04-23T18:12:51.758Z,2.38
2023-04-23T18:15:18.396Z,1.95
2023-04-23T18:17:45.481Z,1.77
2023-04-23T18:20:12.705Z,2.00
2023-04-23T18:22:41.172Z,1.70
2023-04-23T18:25:10.116Z,1.52
2023-04-23T18:27:36.731Z,1.85
2023-04-23T18:30:05.552Z,1.50
2023-04-23T18:32:40.075Z,1.85
2023-04-23T18:35:08.168Z,1.88
2023-04-23T18:37:41.743Z,1.75
2023-04-23T18:40:09.134Z,1.77
2023-04-23T18:42:35.714Z,4.88
2023-04-23T18:45:04.215Z,5.72
2023-04-23T18:47:36.825Z,4.78
2023-04-23T18:50:28.953Z,3.97
2023-04-23T18:52:55.739Z,2.78
2023-04-23T18:55:22.380Z,2.42
2023-04-23T18:57:48.883Z,2.08
2023-04-23T19:00:15.803Z,2.00
2023-04-23T19:02:42.492Z,2.08
2023-04-23T19:05:09.274Z,2.20
2023-04-23T19:07:37.315Z,2.95
2023-04-23T19:10:04.106Z,2.22
2023-04-23T19:12:30.598Z,2.75
2023-04-23T19:14:57.074Z,1.92
2023-04-23T19:17:23.682Z,1.70
2023-04-23T19:19:50.219Z,2.85
2023-04-23T19:22:16.770Z,2.92
2023-04-23T19:24:43.241Z,1.23
2023-04-23T19:27:12.426Z,0.90
2023-04-23T19:29:39.554Z,0.80
2023-04-23T19:32:06.636Z,0.90
2023-04-23T19:34:33.091Z,1.30
2023-04-23T19:36:59.596Z,1.13
2023-04-23T19:46:46.120Z,1.88
2023-04-23T19:49:12.643Z,3.15
2023-04-23T19:51:39.997Z,3.13
2023-04-23T19:54:06.696Z,3.33
2023-04-23T19:56:33.204Z,4.70
2023-04-23T19:58:59.858Z,3.75
2023-04-23T20:01:28.165Z,5.25
2023-04-23T20:03:55.204Z,3.80
2023-04-23T20:06:21.893Z,3.40
2023-04-23T20:09:07.007Z,2.90
2023-04-23T20:11:35.354Z,4.57
2023-04-23T20:14:02.435Z,6.82
2023-04-23T20:16:29.060Z,4.43
2023-04-23T20:18:56.082Z,4.43
2023-04-23T20:21:23.055Z,2.25
2023-04-23T20:23:50.977Z,2.33
2023-04-23T20:26:18.797Z,1.85
2023-04-23T20:28:47.354Z,8.55
2023-04-23T20:31:14.851Z,3.38
2023-04-23T20:33:41.471Z,2.10
2023-04-23T20:36:11.172Z,1.75
2023-04-23T20:38:38.095Z,9.43
2023-04-23T20:41:05.974Z,6.22
2023-04-23T20:43:34.198Z,8.25
2023-04-23T20:46:01.571Z,4.63
2023-04-23T20:48:29.967Z,1.90
2023-04-23T20:50:59.707Z,2.03
2023-04-23T20:53:26.629Z,2.38
2023-04-23T20:55:53.102Z,2.30
2023-04-23T20:58:19.647Z,2.50
2023-04-23T21:00:46.425Z,2.80
2023-04-23T21:03:13.230Z,2.50
2023-04-23T21:05:44.410Z,3.10
2023-04-23T21:08:11.481Z,3.15
2023-04-23T21:10:39.086Z,1.95
2023-04-23T21:13:07.629Z,2.78
2023-04-23T21:15:35.561Z,2.75
2023-04-23T21:18:02.793Z,2.38
2023-04-23T21:20:29.756Z,3.00
2023-04-23T21:22:56.260Z,2.30
2023-04-23T21:25:22.854Z,2.03
2023-04-23T21:27:49.551Z,1.85
2023-04-23T21:30:24.626Z,2.10
2023-04-23T21:32:52.216Z,2.05
2023-04-23T21:35:18.905Z,1.90
2023-04-23T21:37:45.400Z,1.70
2023-04-23T21:40:12.063Z,2.22
2023-04-23T21:42:39.084Z,1.40
2023-04-23T21:45:06.433Z,1.70
2023-04-23T21:47:44.572Z,1.92
2023-04-23T21:50:11.544Z,1.50
2023-04-23T21:52:38.218Z,1.50
2023-04-23T21:55:05.501Z,1.48
2023-04-23T21:57:33.497Z,1.80
2023-04-23T22:00:00.515Z,1.65
2023-04-23T22:02:27.209Z,2.30
2023-04-23T22:04:53.804Z,2.20
2023-04-23T22:07:20.752Z,1.55
2023-04-23T22:09:47.266Z,1.55
2023-04-23T22:12:13.799Z,1.35
2023-04-23T22:14:40.438Z,1.40
2023-04-23T22:17:07.588Z,1.60
2023-04-23T22:19:34.316Z,1.35
2023-04-23T22:22:51.847Z,1.60
2023-04-23T22:25:19.462Z,1.20
2023-04-23T22:27:45.957Z,1.35
2023-04-23T22:30:12.782Z,1.67
2023-04-23T22:32:39.992Z,1.75
2023-04-23T22:35:07.921Z,1.73
2023-04-23T22:37:34.788Z,2.25
2023-04-23T22:40:01.522Z,1.80
2023-04-23T22:42:28.025Z,1.55
2023-04-23T22:44:54.582Z,1.73
2023-04-23T22:47:21.704Z,1.60
2023-04-23T22:49:48.277Z,1.38
2023-04-23T22:52:15.825Z,1.13
2023-04-23T22:54:43.164Z,1.60
2023-04-23T22:57:10.436Z,1.60
2023-04-23T22:59:39.324Z,1.33
2023-04-23T23:02:06.852Z,1.40
2023-04-23T23:04:37.459Z,1.58
2023-04-23T23:07:05.522Z,1.45
2023-04-23T23:09:32.504Z,1.67
2023-04-23T23:12:03.096Z,1.55
2023-04-23T23:14:30.227Z,1.90
2023-04-23T23:16:57.155Z,2.03
2023-04-23T23:19:57.240Z,1.70
2023-04-23T23:58:13.715Z,2.70
